aviador You're here:

LKPD Decoded Metar

PARDUBICE in CZECH REPUBLIC
Report Time2017-08-18 14:00:00
UTC Time2017-08-18 14:28:26
Flight Rules vfr VFR
Wind160° at 07 kt
W.Decomp.*RWY 09: 2.7 kt HW 6.4 kt RCW
W.Rank160° ranks 31
Current wind is above 160° avg. (5.2)
Visibility9999 m
Phenomena:N/A
Clouds:N/A
Expected CloudBase > 6,000 ft AGL from Temp-Dew spread
CeilingNone
Temp31°C (ISA +17)
Dew Point16°C (40% RH)
Heat Index30.9°C
AAT30.4°C
QNH1014 hPa
Density Alt2,946 ft
Elevation741 ft
Report Wrong Elevation
Raw Report
LKPD 181400Z 16007KT CAVOK 31/16 Q1014 NOSIG RMK BLU BLU=

Extra information for LKPD:More info

Metar Taf Metar & Taf Last 4 Metars F.Rules Stats Wind Profile Meteogram Temp Stats Airport Information Weather charts Add Link Nearby VenuesMetar ALERT Operation Metar Decoded Social comments